METAR Data
IDs: Format: Raw Decoded Include TAF

Data at: 1348 UTC 14 Dec 2019

PAOM 141253Z AUTO 08011KT 8SM UP OVC027 M03/M05 A2948 RMK UPB41SNB10E41 SLP982 P0000 T10331050 TSNO VIA AUTODIAL
PAOM 141236Z AUTO 08012KT 4SM -SN BR FEW016 OVC025 M03/M05 A2948 RMK SNB10 P0000 T10331050 TSNO VIA AUTODIAL
PAOM 141229Z AUTO 08012KT 2 1/2SM -SN BR SCT014 SCT021 OVC026 M03/M05 A2948 RMK SNB10 P0000 T10331050 TSNO VIA AUTODIAL
PAOM 141222Z AUTO 08012KT 2SM -SN BR BKN013 OVC023 M04/M05 A2948 RMK SNB10 P0000 T10391050 TSNO VIA AUTODIAL
PAOM 141153Z AUTO 08012KT 10SM OVC012 M04/M06 A2949 RMK SNE22 SLP985 P0000 60000 T10391056 11039 21050 50005 TSNO VIA AUTODIAL
PAOM 141128Z AUTO 08012KT 7SM BKN013 OVC022 M04/M06 A2949 RMK SNE22 P0000 T10391056 TSNO VIA AUTODIAL
PAOM 141107Z AUTO 08012KT 3SM -SN BR SCT013 OVC021 M04/M06 A2949 RMK P0000 T10391056 TSNO VIA AUTODIAL
PAOM 141053Z AUTO 08013KT 5SM -SN BR BKN013 OVC021 M04/M06 A2949 RMK SLP985 P0000 T10391056 TSNO VIA AUTODIAL
PAOM 141042Z AUTO 08013KT 4SM -SN BR BKN013 OVC019 M04/M06 A2949 RMK P0000 T10391056 TSNO VIA AUTODIAL
PAOM 141033Z AUTO 09013KT 2 1/2SM -SN BR BKN013 OVC019 M04/M06 A2948 RMK P0000 T10441056 TSNO VIA AUTODIAL
PAOM 141019Z AUTO 08011KT 2SM -SN BR SCT015 OVC021 M04/M06 A2949 RMK P0000 T10441061 TSNO VIA AUTODIAL
PAOM 140953Z AUTO 08013KT 5SM -SN BR BKN014 OVC030 M04/M06 A2948 RMK SNE39B45 SLP983 P0000 T10441061 TSNO VIA AUTODIAL
PAOM 140943Z AUTO 09013KT 7SM BKN014 OVC039 M04/M06 A2948 RMK SNE39 P0000 T10441061 TSNO VIA AUTODIAL
PAOM 140853Z AUTO 08014KT 6SM -SN BR SCT023 OVC032 M04/M07 A2947 RMK SNB20 SLP980 P0000 60000 T10441067 410441122 51009 TSNO VIA AUTODIAL
PAOM 140851Z AUTO 08012KT 5SM -SN BR SCT022 OVC032 M04/M07 A2947 RMK SNB20 P0000 TSNO VIA AUTODIAL
PAOM 140846Z AUTO 08012KT 4SM -SN BR SCT018 BKN028 OVC034 M04/M07 A2947 RMK SNB20 P0000 T10441067 TSNO VIA AUTODIAL
PAOM 140837Z AUTO 08013KT 2 1/2SM -SN BR BKN017 BKN024 OVC029 M04/M07 A2947 RMK SNB20 P0000 T10441067 TSNO VIA AUTODIAL
PAOM 140753Z AUTO 09013KT 10SM OVC024 M04/M06 A2946 RMK SLP977 T10441061 TSNO VIA AUTODIAL
PAOM 140653Z 08012KT 10SM OVC025 M05/M07 A2945 RMK SLP974 T10501067 VIA AUTODIAL
PAOM 140608Z 07012KT 10SM OVC028 M05/M07 A2944 RMK T10501067 VIA AUTODIAL
PAOM 140553Z 07013KT 10SM OVC030 M05/M07 A2944 RMK SNB17E33 SLP971 P0000 60000 I1000 I6002 T10501067 11050 21061 53008 VIA AUTODIAL
PAOM 140512Z 08012KT 10SM FEW004 BKN030 OVC037 M05/M06 A2944 RMK I1000 T10501061 VIA AUTODIAL
PAOM 140503Z 08011KT 10SM BKN031 OVC039 M05/M06 A2944 RMK I1000 T10501061 VIA AUTODIAL
PAOM 140453Z 09013KT 10SM BKN029 OVC035 M05/M06 A2943 RMK SLP967 I1001 T10501061 VIA AUTODIAL
PAOM 140438Z 09011KT 10SM SCT006 BKN029 OVC045 M05/M06 A2943 RMK I1001 T10501061 VIA AUTODIAL
PAOM 140412Z 09013KT 3SM BR OVC005 M06/M06 A2942 RMK I1001 T10561061 VIA AUTODIAL
PAOM 140353Z 09012KT 2 1/2SM BR BKN006 OVC010 M06/M07 A2942 RMK SNB0259E16 SLP963 P0000 I1001 T10561067 VIA AUTODIAL
PAOM 140351Z 09012KT 2 1/2SM BR BKN006 OVC011 M06/M07 A2942 RMK SNB0259E16 P0000 I1001 VIA AUTODIAL
PAOM 140343Z 09011KT 3SM BR BKN007 BKN012 OVC018 M06/M07 A2942 RMK SNB0259E16 P0000 I1001 T10561067 VIA AUTODIAL
PAOM 140253Z 11015KT 10SM FEW009 OVC020 M06/M07 A2940 RMK SNE40 SLP958 P0000 60000 T10561072 53017 VIA AUTODIAL
PAOM 140235Z 09013KT 9SM -SN FEW009 BKN019 OVC038 M06/M07 A2939 RMK P0000 T10561072 VIA AUTODIAL
PAOM 140153Z 08011KT 3SM -SN BR OVC036 M06/M08 A2938 RMK SNB0056 SLP949 P0000 T10611083 VIA AUTODIAL
PAOM 140147Z 07011KT 2SM -SN BR BKN031 OVC039 M06/M08 A2938 RMK SNB0056 P0000 VIA AUTODIAL
PAOM 140135Z 08010KT 3SM -SN BR OVC029 M06/M08 A2938 RMK SNB0056 P0000 T10611083 VIA AUTODIAL
PAOM 140121Z 07012KT 1SM R28/P6000FT -SN OVC022 M06/M09 A2937 RMK SNB0056 P0000 T10611089 VIA AUTODIAL
PAOM 140107Z 08012KT 1 1/2SM -SN BKN034 OVC065 M06/M09 A2937 RMK SNB0056 P0000 T10611094 VIA AUTODIAL
PAOM 140053Z 08013KT 10SM BKN055 BKN070 OVC085 M06/M09 A2937 RMK SLP945 T10611094 VIA AUTODIAL
PAOM 132353Z 07011KT 10SM BKN095 BKN120 M06/M09 A2935 RMK SLP941 T10611094 11056 21094 53007 VIA AUTODIAL
PAOM 132253Z 08012KT 10SM FEW019 OVC090 M06/M09 A2934 RMK CIG 020 NE SLP937 T10611094 VIA AUTODIAL
PAOM 132153Z 08009KT 10SM BKN036 BKN120 M06/M09 A2934 RMK SLP934 T10611094 VIA AUTODIAL
PAOM 132053Z 08007KT 10SM OVC034 M07/M09 A2933 RMK SLP933 T10671094 53017 VIA AUTODIAL
PAOM 131953Z 08006KT 10SM OVC110 M06/M09 A2932 RMK SLP928 T10611094 VIA AUTODIAL
PAOM 131853Z 08007KT 10SM OVC110 M06/M09 A2930 RMK SLP921 T10611089 VIA AUTODIAL
PAOM 131753Z 00000KT 10SM OVC110 M09/M11 A2928 RMK SLP917 I6000 T10941111 11094 21122 55000 VIA AUTODIAL
PAOM 131653Z 00000KT 10SM BKN100 M11/M13 A2928 RMK SLP914 I1000 T11111128 VIA AUTODIAL
PAOM 131553Z AUTO 00000KT 10SM CLR M12/M13 A2928 RMK SLP915 T11171128 TSNO VIA AUTODIAL
PAOM 131453Z AUTO 00000KT 10SM CLR M12/M13 A2928 RMK SLP917 T11171133 58001 TSNO VIA AUTODIAL
PAOM 131353Z AUTO 00000KT 10SM CLR M11/M13 A2930 RMK SLP921 T11111128 TSNO VIA AUTODIAL
PAOM 131253Z AUTO 00000KT 10SM CLR M11/M12 A2929 RMK SLP919 T11061122 TSNO VIA AUTODIAL
PAOM 131153Z AUTO 00000KT 10SM CLR M10/M12 A2929 RMK SLP918 T11001117 11044 21106 58008 TSNO VIA AUTODIAL
PAOM 131053Z AUTO 36004KT 10SM CLR M08/M10 A2931 RMK SLP924 T10831100 TSNO VIA AUTODIAL
PAOM 130953Z AUTO 00000KT 10SM CLR M06/M08 A2931 RMK SLP925 T10611083 TSNO VIA AUTODIAL
PAOM 130853Z AUTO 00000KT 10SM CLR M06/M08 A2931 RMK SLP926 T10561078 400281083 55004 TSNO VIA AUTODIAL
PAOM 130753Z AUTO 00000KT 10SM CLR M07/M09 A2931 RMK SLP925 T10671089 TSNO VIA AUTODIAL
PAOM 130653Z 00000KT 10SM CLR M07/M09 A2931 RMK SLP924 T10671089 VIA AUTODIAL
PAOM 130553Z 02003KT 10SM CLR M06/M09 A2932 RMK SLP930 T10561089 11050 21078 58009 VIA AUTODIAL
PAOM 130453Z 00000KT 10SM CLR M07/M10 A2933 RMK SLP932 T10721100 VIA AUTODIAL
PAOM 130353Z 00000KT 10SM CLR M07/M09 A2936 RMK SLP941 T10671094 VIA AUTODIAL
PAOM 130253Z 00000KT 10SM CLR M06/M09 A2935 RMK SLP939 T10611094 55002 VIA AUTODIAL
PAOM 130153Z 36005KT 10SM CLR M06/M09 A2934 RMK SLP935 T10561089 VIA AUTODIAL